sensor_id;sensor_type;location;lat;lon;timestamp;P1;durP1;ratioP1;P2;durP2;ratioP2
8675;SDS011;4375;52.486;13.424;2023-01-28T00:01:42;25.00;;;6.10;;
8675;SDS011;4375;52.486;13.424;2023-01-28T00:04:07;23.87;;;6.20;;
8675;SDS011;4375;52.486;13.424;2023-01-28T00:06:33;21.50;;;5.60;;
8675;SDS011;4375;52.486;13.424;2023-01-28T00:08:59;26.60;;;7.53;;
8675;SDS011;4375;52.486;13.424;2023-01-28T00:11:25;26.20;;;7.13;;
8675;SDS011;4375;52.486;13.424;2023-01-28T00:13:51;27.23;;;6.50;;
8675;SDS011;4375;52.486;13.424;2023-01-28T00:16:18;24.23;;;7.53;;
8675;SDS011;4375;52.486;13.424;2023-01-28T00:18:44;20.02;;;5.78;;
8675;SDS011;4375;52.486;13.424;2023-01-28T00:21:10;21.03;;;5.27;;
8675;SDS011;4375;52.486;13.424;2023-01-28T00:26:08;22.02;;;5.80;;
8675;SDS011;4375;52.486;13.424;2023-01-28T00:28:36;25.73;;;6.70;;
8675;SDS011;4375;52.486;13.424;2023-01-28T00:31:05;24.57;;;5.30;;
8675;SDS011;4375;52.486;13.424;2023-01-28T00:33:32;23.30;;;6.40;;
8675;SDS011;4375;52.486;13.424;2023-01-28T00:35:58;28.93;;;6.90;;
8675;SDS011;4375;52.486;13.424;2023-01-28T00:38:25;26.75;;;6.80;;
8675;SDS011;4375;52.486;13.424;2023-01-28T00:40:51;24.00;;;6.03;;
8675;SDS011;4375;52.486;13.424;2023-01-28T00:43:16;25.83;;;6.93;;
8675;SDS011;4375;52.486;13.424;2023-01-28T00:45:42;27.77;;;7.00;;
8675;SDS011;4375;52.486;13.424;2023-01-28T00:48:07;23.73;;;6.27;;
8675;SDS011;4375;52.486;13.424;2023-01-28T00:50:33;24.40;;;6.17;;
8675;SDS011;4375;52.486;13.424;2023-01-28T00:52:59;23.30;;;6.67;;
8675;SDS011;4375;52.486;13.424;2023-01-28T00:55:25;19.67;;;4.60;;
8675;SDS011;4375;52.486;13.424;2023-01-28T00:57:52;25.55;;;5.90;;
8675;SDS011;4375;52.486;13.424;2023-01-28T01:00:18;17.63;;;4.90;;
8675;SDS011;4375;52.486;13.424;2023-01-28T01:02:45;19.70;;;5.55;;
8675;SDS011;4375;52.486;13.424;2023-01-28T01:05:10;20.97;;;5.80;;
8675;SDS011;4375;52.486;13.424;2023-01-28T01:07:36;19.23;;;5.70;;
8675;SDS011;4375;52.486;13.424;2023-01-28T01:10:11;21.15;;;5.50;;
8675;SDS011;4375;52.486;13.424;2023-01-28T01:12:38;22.48;;;5.10;;
8675;SDS011;4375;52.486;13.424;2023-01-28T01:15:05;18.52;;;5.13;;
8675;SDS011;4375;52.486;13.424;2023-01-28T01:17:34;24.63;;;5.30;;
8675;SDS011;4375;52.486;13.424;2023-01-28T01:20:02;19.88;;;4.95;;
8675;SDS011;4375;52.486;13.424;2023-01-28T01:22:31;19.67;;;5.47;;
8675;SDS011;4375;52.486;13.424;2023-01-28T01:24:57;22.90;;;6.30;;
8675;SDS011;4375;52.486;13.424;2023-01-28T01:27:23;23.60;;;5.40;;
8675;SDS011;4375;52.486;13.424;2023-01-28T01:29:49;20.80;;;4.60;;
8675;SDS011;4375;52.486;13.424;2023-01-28T01:32:14;20.30;;;5.30;;
8675;SDS011;4375;52.486;13.424;2023-01-28T01:34:40;24.27;;;6.23;;
8675;SDS011;4375;52.486;13.424;2023-01-28T01:37:06;23.23;;;6.30;;
8675;SDS011;4375;52.486;13.424;2023-01-28T01:39:33;25.35;;;7.75;;
8675;SDS011;4375;52.486;13.424;2023-01-28T01:41:58;21.27;;;6.28;;
8675;SDS011;4375;52.486;13.424;2023-01-28T01:49:54;24.50;;;6.30;;
8675;SDS011;4375;52.486;13.424;2023-01-28T01:52:25;21.33;;;5.80;;
8675;SDS011;4375;52.486;13.424;2023-01-28T01:54:56;18.75;;;4.95;;
8675;SDS011;4375;52.486;13.424;2023-01-28T01:57:31;21.33;;;5.68;;
8675;SDS011;4375;52.486;13.424;2023-01-28T02:00:00;16.48;;;3.85;;
8675;SDS011;4375;52.486;13.424;2023-01-28T02:02:41;27.90;;;5.45;;
8675;SDS011;4375;52.486;13.424;2023-01-28T02:05:10;24.73;;;4.88;;
8675;SDS011;4375;52.486;13.424;2023-01-28T02:07:37;19.30;;;4.95;;
8675;SDS011;4375;52.486;13.424;2023-01-28T02:10:04;24.48;;;5.40;;
8675;SDS011;4375;52.486;13.424;2023-01-28T02:12:33;20.05;;;4.50;;
8675;SDS011;4375;52.486;13.424;2023-01-28T02:15:15;19.27;;;5.20;;
8675;SDS011;4375;52.486;13.424;2023-01-28T02:17:43;17.80;;;4.72;;
8675;SDS011;4375;52.486;13.424;2023-01-28T02:20:11;22.80;;;4.80;;
8675;SDS011;4375;52.486;13.424;2023-01-28T02:30:50;17.80;;;4.45;;
8675;SDS011;4375;52.486;13.424;2023-01-28T02:38:45;21.27;;;4.78;;
8675;SDS011;4375;52.486;13.424;2023-01-28T02:41:19;22.80;;;4.72;;
8675;SDS011;4375;52.486;13.424;2023-01-28T02:43:49;21.05;;;4.60;;
8675;SDS011;4375;52.486;13.424;2023-01-28T02:49:07;20.30;;;4.65;;
8675;SDS011;4375;52.486;13.424;2023-01-28T02:52:07;23.95;;;4.75;;
8675;SDS011;4375;52.486;13.424;2023-01-28T02:58:17;23.50;;;5.80;;
8675;SDS011;4375;52.486;13.424;2023-01-28T03:05:42;18.60;;;4.35;;
8675;SDS011;4375;52.486;13.424;2023-01-28T03:08:27;19.48;;;5.32;;
8675;SDS011;4375;52.486;13.424;2023-01-28T03:11:15;17.40;;;4.43;;
8675;SDS011;4375;52.486;13.424;2023-01-28T03:13:59;21.85;;;4.93;;
8675;SDS011;4375;52.486;13.424;2023-01-28T03:16:44;19.48;;;4.78;;
8675;SDS011;4375;52.486;13.424;2023-01-28T03:19:29;17.38;;;3.90;;
8675;SDS011;4375;52.486;13.424;2023-01-28T03:22:13;20.10;;;3.85;;
8675;SDS011;4375;52.486;13.424;2023-01-28T03:24:59;16.42;;;3.38;;
8675;SDS011;4375;52.486;13.424;2023-01-28T03:27:55;20.33;;;3.70;;
8675;SDS011;4375;52.486;13.424;2023-01-28T03:33:39;14.82;;;3.13;;
8675;SDS011;4375;52.486;13.424;2023-01-28T03:36:24;17.65;;;3.70;;
8675;SDS011;4375;52.486;13.424;2023-01-28T03:39:09;20.95;;;3.78;;
8675;SDS011;4375;52.486;13.424;2023-01-28T03:41:34;16.17;;;3.97;;
8675;SDS011;4375;52.486;13.424;2023-01-28T03:44:00;16.93;;;3.73;;
8675;SDS011;4375;52.486;13.424;2023-01-28T03:46:44;15.63;;;3.33;;
8675;SDS011;4375;52.486;13.424;2023-01-28T03:49:10;20.43;;;4.17;;
8675;SDS011;4375;52.486;13.424;2023-01-28T03:51:35;18.30;;;3.70;;
8675;SDS011;4375;52.486;13.424;2023-01-28T03:54:01;21.53;;;3.50;;
8675;SDS011;4375;52.486;13.424;2023-01-28T03:56:27;14.50;;;2.90;;
8675;SDS011;4375;52.486;13.424;2023-01-28T03:58:56;16.98;;;4.50;;
8675;SDS011;4375;52.486;13.424;2023-01-28T04:01:22;17.03;;;3.60;;
8675;SDS011;4375;52.486;13.424;2023-01-28T04:03:48;15.85;;;3.30;;
8675;SDS011;4375;52.486;13.424;2023-01-28T04:06:13;16.80;;;3.00;;
8675;SDS011;4375;52.486;13.424;2023-01-28T04:08:39;19.07;;;3.90;;
8675;SDS011;4375;52.486;13.424;2023-01-28T04:11:10;17.90;;;4.15;;
8675;SDS011;4375;52.486;13.424;2023-01-28T04:13:43;20.45;;;3.90;;
8675;SDS011;4375;52.486;13.424;2023-01-28T04:16:10;15.23;;;3.63;;
8675;SDS011;4375;52.486;13.424;2023-01-28T04:18:37;15.75;;;3.60;;
8675;SDS011;4375;52.486;13.424;2023-01-28T04:21:03;17.77;;;3.50;;
8675;SDS011;4375;52.486;13.424;2023-01-28T04:23:29;16.40;;;3.17;;
8675;SDS011;4375;52.486;13.424;2023-01-28T04:25:55;17.13;;;3.77;;
8675;SDS011;4375;52.486;13.424;2023-01-28T04:28:21;15.83;;;3.37;;
8675;SDS011;4375;52.486;13.424;2023-01-28T04:30:47;16.37;;;3.57;;
8675;SDS011;4375;52.486;13.424;2023-01-28T04:33:12;17.15;;;3.40;;
8675;SDS011;4375;52.486;13.424;2023-01-28T04:35:38;15.13;;;3.40;;
8675;SDS011;4375;52.486;13.424;2023-01-28T04:38:04;14.80;;;3.07;;
8675;SDS011;4375;52.486;13.424;2023-01-28T04:40:29;16.40;;;3.40;;
8675;SDS011;4375;52.486;13.424;2023-01-28T04:42:55;18.50;;;3.50;;
8675;SDS011;4375;52.486;13.424;2023-01-28T04:45:21;15.83;;;3.47;;
8675;SDS011;4375;52.486;13.424;2023-01-28T04:47:47;17.45;;;3.83;;
8675;SDS011;4375;52.486;13.424;2023-01-28T04:50:13;14.20;;;2.63;;
8675;SDS011;4375;52.486;13.424;2023-01-28T04:52:38;16.70;;;3.30;;
8675;SDS011;4375;52.486;13.424;2023-01-28T04:55:04;17.10;;;3.37;;
8675;SDS011;4375;52.486;13.424;2023-01-28T04:57:30;16.40;;;2.97;;
8675;SDS011;4375;52.486;13.424;2023-01-28T04:59:56;21.33;;;4.27;;
8675;SDS011;4375;52.486;13.424;2023-01-28T05:02:22;15.60;;;3.00;;
8675;SDS011;4375;52.486;13.424;2023-01-28T05:04:48;15.67;;;3.10;;
8675;SDS011;4375;52.486;13.424;2023-01-28T05:07:13;18.20;;;3.17;;
8675;SDS011;4375;52.486;13.424;2023-01-28T05:09:39;21.27;;;3.20;;
8675;SDS011;4375;52.486;13.424;2023-01-28T05:12:04;14.87;;;2.67;;
8675;SDS011;4375;52.486;13.424;2023-01-28T05:14:30;18.57;;;2.73;;
8675;SDS011;4375;52.486;13.424;2023-01-28T05:16:56;17.43;;;3.37;;
8675;SDS011;4375;52.486;13.424;2023-01-28T05:19:21;14.70;;;2.83;;
8675;SDS011;4375;52.486;13.424;2023-01-28T05:21:47;15.20;;;2.87;;
8675;SDS011;4375;52.486;13.424;2023-01-28T05:24:13;15.20;;;3.43;;
8675;SDS011;4375;52.486;13.424;2023-01-28T05:26:39;15.93;;;3.10;;
8675;SDS011;4375;52.486;13.424;2023-01-28T05:29:05;16.43;;;3.20;;
8675;SDS011;4375;52.486;13.424;2023-01-28T05:31:31;23.10;;;3.50;;
8675;SDS011;4375;52.486;13.424;2023-01-28T05:33:57;17.50;;;3.50;;
8675;SDS011;4375;52.486;13.424;2023-01-28T05:36:22;16.87;;;4.27;;
8675;SDS011;4375;52.486;13.424;2023-01-28T05:38:48;18.00;;;4.10;;
8675;SDS011;4375;52.486;13.424;2023-01-28T05:41:14;18.73;;;5.23;;
8675;SDS011;4375;52.486;13.424;2023-01-28T05:43:39;18.70;;;3.80;;
8675;SDS011;4375;52.486;13.424;2023-01-28T05:46:05;19.37;;;4.80;;
8675;SDS011;4375;52.486;13.424;2023-01-28T05:48:31;17.00;;;4.33;;
8675;SDS011;4375;52.486;13.424;2023-01-28T05:50:56;20.13;;;6.10;;
8675;SDS011;4375;52.486;13.424;2023-01-28T05:53:22;22.20;;;5.97;;
8675;SDS011;4375;52.486;13.424;2023-01-28T05:55:48;26.07;;;8.17;;
8675;SDS011;4375;52.486;13.424;2023-01-28T05:58:15;23.67;;;6.93;;
8675;SDS011;4375;52.486;13.424;2023-01-28T06:00:41;24.73;;;6.90;;
8675;SDS011;4375;52.486;13.424;2023-01-28T06:03:07;27.93;;;7.73;;
8675;SDS011;4375;52.486;13.424;2023-01-28T06:05:32;22.73;;;7.30;;
8675;SDS011;4375;52.486;13.424;2023-01-28T06:07:58;23.90;;;7.13;;
8675;SDS011;4375;52.486;13.424;2023-01-28T06:10:24;26.63;;;7.93;;
8675;SDS011;4375;52.486;13.424;2023-01-28T06:12:49;29.13;;;7.30;;
8675;SDS011;4375;52.486;13.424;2023-01-28T06:15:15;23.00;;;6.90;;
8675;SDS011;4375;52.486;13.424;2023-01-28T06:17:41;27.10;;;6.47;;
8675;SDS011;4375;52.486;13.424;2023-01-28T06:20:06;28.37;;;7.80;;
8675;SDS011;4375;52.486;13.424;2023-01-28T06:22:33;27.15;;;7.47;;
8675;SDS011;4375;52.486;13.424;2023-01-28T06:24:58;26.57;;;7.93;;
8675;SDS011;4375;52.486;13.424;2023-01-28T06:27:24;28.60;;;7.43;;
8675;SDS011;4375;52.486;13.424;2023-01-28T06:29:51;24.88;;;7.25;;
8675;SDS011;4375;52.486;13.424;2023-01-28T06:32:17;20.27;;;5.93;;
8675;SDS011;4375;52.486;13.424;2023-01-28T06:34:43;21.03;;;6.57;;
8675;SDS011;4375;52.486;13.424;2023-01-28T06:37:11;21.80;;;7.00;;
8675;SDS011;4375;52.486;13.424;2023-01-28T06:39:40;20.20;;;6.13;;
8675;SDS011;4375;52.486;13.424;2023-01-28T06:42:10;23.75;;;7.03;;
8675;SDS011;4375;52.486;13.424;2023-01-28T06:44:38;21.40;;;6.28;;
8675;SDS011;4375;52.486;13.424;2023-01-28T06:47:04;28.07;;;7.87;;
8675;SDS011;4375;52.486;13.424;2023-01-28T06:49:30;23.37;;;7.20;;
8675;SDS011;4375;52.486;13.424;2023-01-28T06:51:55;24.53;;;7.67;;
8675;SDS011;4375;52.486;13.424;2023-01-28T06:54:21;25.47;;;7.93;;
8675;SDS011;4375;52.486;13.424;2023-01-28T06:56:46;23.90;;;7.20;;
8675;SDS011;4375;52.486;13.424;2023-01-28T06:59:12;21.30;;;6.50;;
8675;SDS011;4375;52.486;13.424;2023-01-28T07:01:38;21.37;;;6.23;;
8675;SDS011;4375;52.486;13.424;2023-01-28T07:04:03;22.77;;;6.30;;
8675;SDS011;4375;52.486;13.424;2023-01-28T07:06:29;21.77;;;6.90;;
8675;SDS011;4375;52.486;13.424;2023-01-28T07:08:54;24.87;;;7.33;;
8675;SDS011;4375;52.486;13.424;2023-01-28T07:11:20;22.43;;;6.87;;
8675;SDS011;4375;52.486;13.424;2023-01-28T07:13:46;21.00;;;6.37;;
8675;SDS011;4375;52.486;13.424;2023-01-28T07:16:12;25.63;;;7.20;;
8675;SDS011;4375;52.486;13.424;2023-01-28T07:18:38;26.38;;;7.25;;
8675;SDS011;4375;52.486;13.424;2023-01-28T07:21:03;25.40;;;6.30;;
8675;SDS011;4375;52.486;13.424;2023-01-28T07:23:29;26.43;;;7.23;;
8675;SDS011;4375;52.486;13.424;2023-01-28T07:25:59;21.47;;;6.40;;
8675;SDS011;4375;52.486;13.424;2023-01-28T07:28:28;25.02;;;7.30;;
8675;SDS011;4375;52.486;13.424;2023-01-28T07:30:53;27.63;;;8.40;;
8675;SDS011;4375;52.486;13.424;2023-01-28T07:33:19;25.70;;;7.20;;
8675;SDS011;4375;52.486;13.424;2023-01-28T07:35:45;27.35;;;8.25;;
8675;SDS011;4375;52.486;13.424;2023-01-28T07:38:11;26.50;;;7.95;;
8675;SDS011;4375;52.486;13.424;2023-01-28T07:40:37;19.43;;;6.07;;
8675;SDS011;4375;52.486;13.424;2023-01-28T07:43:03;24.40;;;6.93;;
8675;SDS011;4375;52.486;13.424;2023-01-28T07:45:31;22.48;;;6.75;;
8675;SDS011;4375;52.486;13.424;2023-01-28T07:47:57;24.50;;;7.17;;
8675;SDS011;4375;52.486;13.424;2023-01-28T07:50:25;22.75;;;7.43;;
8675;SDS011;4375;52.486;13.424;2023-01-28T07:52:53;24.48;;;6.13;;
8675;SDS011;4375;52.486;13.424;2023-01-28T07:55:19;17.90;;;5.30;;
8675;SDS011;4375;52.486;13.424;2023-01-28T07:57:48;20.03;;;5.27;;
8675;SDS011;4375;52.486;13.424;2023-01-28T08:00:14;20.58;;;4.90;;
8675;SDS011;4375;52.486;13.424;2023-01-28T08:02:40;18.58;;;4.20;;
8675;SDS011;4375;52.486;13.424;2023-01-28T08:05:09;17.88;;;3.95;;
8675;SDS011;4375;52.486;13.424;2023-01-28T08:07:35;20.80;;;5.20;;
8675;SDS011;4375;52.486;13.424;2023-01-28T08:10:00;20.03;;;4.10;;
8675;SDS011;4375;52.486;13.424;2023-01-28T08:12:26;18.80;;;5.10;;
8675;SDS011;4375;52.486;13.424;2023-01-28T08:14:51;19.17;;;4.87;;
8675;SDS011;4375;52.486;13.424;2023-01-28T08:17:17;17.40;;;5.17;;
8675;SDS011;4375;52.486;13.424;2023-01-28T08:19:42;21.43;;;4.83;;
8675;SDS011;4375;52.486;13.424;2023-01-28T08:22:08;19.13;;;5.50;;
8675;SDS011;4375;52.486;13.424;2023-01-28T08:24:34;18.33;;;5.20;;
8675;SDS011;4375;52.486;13.424;2023-01-28T08:26:59;23.23;;;5.67;;
8675;SDS011;4375;52.486;13.424;2023-01-28T08:29:25;19.97;;;5.53;;
8675;SDS011;4375;52.486;13.424;2023-01-28T08:31:51;22.27;;;5.50;;
8675;SDS011;4375;52.486;13.424;2023-01-28T08:34:16;21.10;;;5.83;;
8675;SDS011;4375;52.486;13.424;2023-01-28T08:36:42;21.07;;;6.30;;
8675;SDS011;4375;52.486;13.424;2023-01-28T08:39:07;23.93;;;6.20;;
8675;SDS011;4375;52.486;13.424;2023-01-28T08:41:33;21.30;;;7.23;;
8675;SDS011;4375;52.486;13.424;2023-01-28T08:43:59;20.00;;;6.13;;
8675;SDS011;4375;52.486;13.424;2023-01-28T08:46:25;20.15;;;5.82;;
8675;SDS011;4375;52.486;13.424;2023-01-28T08:48:50;19.40;;;5.80;;
8675;SDS011;4375;52.486;13.424;2023-01-28T08:51:16;20.67;;;6.13;;
8675;SDS011;4375;52.486;13.424;2023-01-28T08:53:42;23.83;;;6.07;;
8675;SDS011;4375;52.486;13.424;2023-01-28T08:56:07;17.77;;;4.40;;
8675;SDS011;4375;52.486;13.424;2023-01-28T08:58:33;20.17;;;5.13;;
8675;SDS011;4375;52.486;13.424;2023-01-28T09:01:02;18.20;;;5.30;;
8675;SDS011;4375;52.486;13.424;2023-01-28T09:03:30;17.00;;;4.03;;
8675;SDS011;4375;52.486;13.424;2023-01-28T09:05:59;20.10;;;4.97;;
8675;SDS011;4375;52.486;13.424;2023-01-28T09:08:27;19.23;;;5.25;;
8675;SDS011;4375;52.486;13.424;2023-01-28T09:10:54;15.73;;;3.70;;
8675;SDS011;4375;52.486;13.424;2023-01-28T09:13:20;19.92;;;4.00;;
8675;SDS011;4375;52.486;13.424;2023-01-28T09:15:46;16.73;;;3.80;;
8675;SDS011;4375;52.486;13.424;2023-01-28T09:18:12;16.80;;;4.17;;
8675;SDS011;4375;52.486;13.424;2023-01-28T09:20:37;14.20;;;2.27;;
8675;SDS011;4375;52.486;13.424;2023-01-28T09:23:03;14.65;;;2.97;;
8675;SDS011;4375;52.486;13.424;2023-01-28T09:25:30;15.15;;;3.13;;
8675;SDS011;4375;52.486;13.424;2023-01-28T09:27:56;14.20;;;2.70;;
8675;SDS011;4375;52.486;13.424;2023-01-28T09:30:22;17.02;;;3.35;;
8675;SDS011;4375;52.486;13.424;2023-01-28T09:32:51;14.83;;;2.40;;
8675;SDS011;4375;52.486;13.424;2023-01-28T09:35:18;17.83;;;2.97;;
8675;SDS011;4375;52.486;13.424;2023-01-28T09:37:44;15.00;;;3.20;;
8675;SDS011;4375;52.486;13.424;2023-01-28T09:40:17;15.93;;;3.05;;
8675;SDS011;4375;52.486;13.424;2023-01-28T09:45:36;16.17;;;2.90;;
8675;SDS011;4375;52.486;13.424;2023-01-28T09:48:09;17.45;;;3.17;;
8675;SDS011;4375;52.486;13.424;2023-01-28T09:50:41;15.07;;;2.78;;
8675;SDS011;4375;52.486;13.424;2023-01-28T09:55:50;13.90;;;2.10;;
8675;SDS011;4375;52.486;13.424;2023-01-28T09:58:20;13.95;;;2.42;;
8675;SDS011;4375;52.486;13.424;2023-01-28T10:00:59;15.70;;;2.10;;
8675;SDS011;4375;52.486;13.424;2023-01-28T10:08:59;14.05;;;2.05;;
8675;SDS011;4375;52.486;13.424;2023-01-28T10:17:16;21.20;;;4.38;;
8675;SDS011;4375;52.486;13.424;2023-01-28T10:19:54;18.50;;;3.28;;
8675;SDS011;4375;52.486;13.424;2023-01-28T10:22:33;14.73;;;2.22;;
8675;SDS011;4375;52.486;13.424;2023-01-28T10:25:06;15.68;;;2.35;;
8675;SDS011;4375;52.486;13.424;2023-01-28T10:27:43;15.82;;;2.13;;
8675;SDS011;4375;52.486;13.424;2023-01-28T10:30:15;14.40;;;2.20;;
8675;SDS011;4375;52.486;13.424;2023-01-28T10:35:20;14.55;;;1.95;;
8675;SDS011;4375;52.486;13.424;2023-01-28T10:37:46;13.95;;;2.15;;
8675;SDS011;4375;52.486;13.424;2023-01-28T10:40:15;14.80;;;2.20;;
8675;SDS011;4375;52.486;13.424;2023-01-28T10:42:42;15.10;;;2.03;;
8675;SDS011;4375;52.486;13.424;2023-01-28T10:47:45;14.32;;;1.95;;
8675;SDS011;4375;52.486;13.424;2023-01-28T10:50:22;15.05;;;2.20;;
8675;SDS011;4375;52.486;13.424;2023-01-28T10:52:53;12.90;;;1.60;;
8675;SDS011;4375;52.486;13.424;2023-01-28T10:55:19;14.10;;;2.15;;
8675;SDS011;4375;52.486;13.424;2023-01-28T10:57:45;13.82;;;1.80;;
8675;SDS011;4375;52.486;13.424;2023-01-28T11:00:21;13.90;;;1.90;;
8675;SDS011;4375;52.486;13.424;2023-01-28T11:02:49;16.65;;;2.55;;
8675;SDS011;4375;52.486;13.424;2023-01-28T11:05:25;16.63;;;2.33;;
8675;SDS011;4375;52.486;13.424;2023-01-28T11:08:03;15.80;;;2.55;;
8675;SDS011;4375;52.486;13.424;2023-01-28T11:10:33;13.93;;;2.15;;
8675;SDS011;4375;52.486;13.424;2023-01-28T11:13:02;15.20;;;3.00;;
8675;SDS011;4375;52.486;13.424;2023-01-28T11:15:29;13.80;;;1.88;;
8675;SDS011;4375;52.486;13.424;2023-01-28T11:17:56;18.50;;;2.53;;
8675;SDS011;4375;52.486;13.424;2023-01-28T11:20:25;15.85;;;2.38;;
8675;SDS011;4375;52.486;13.424;2023-01-28T11:22:52;16.80;;;2.80;;
8675;SDS011;4375;52.486;13.424;2023-01-28T11:27:51;21.95;;;2.33;;
8675;SDS011;4375;52.486;13.424;2023-01-28T11:30:25;14.55;;;2.15;;
8675;SDS011;4375;52.486;13.424;2023-01-28T11:35:39;14.65;;;1.92;;
8675;SDS011;4375;52.486;13.424;2023-01-28T11:38:14;14.20;;;2.10;;
8675;SDS011;4375;52.486;13.424;2023-01-28T11:40:52;14.90;;;2.20;;
8675;SDS011;4375;52.486;13.424;2023-01-28T11:43:23;15.67;;;2.20;;
8675;SDS011;4375;52.486;13.424;2023-01-28T11:45:54;15.37;;;2.40;;
8675;SDS011;4375;52.486;13.424;2023-01-28T11:51:30;14.90;;;2.00;;
8675;SDS011;4375;52.486;13.424;2023-01-28T12:02:33;18.13;;;2.40;;
8675;SDS011;4375;52.486;13.424;2023-01-28T12:07:32;16.27;;;2.93;;
8675;SDS011;4375;52.486;13.424;2023-01-28T12:21:04;16.23;;;2.23;;
8675;SDS011;4375;52.486;13.424;2023-01-28T12:23:39;16.23;;;2.23;;
8675;SDS011;4375;52.486;13.424;2023-01-28T12:37:38;13.93;;;1.53;;
8675;SDS011;4375;52.486;13.424;2023-01-28T12:45:32;17.20;;;2.10;;
8675;SDS011;4375;52.486;13.424;2023-01-28T12:51:03;19.40;;;2.30;;
8675;SDS011;4375;52.486;13.424;2023-01-28T12:53:45;14.90;;;2.20;;
8675;SDS011;4375;52.486;13.424;2023-01-28T12:56:18;15.03;;;2.23;;
8675;SDS011;4375;52.486;13.424;2023-01-28T12:58:59;14.40;;;2.00;;
8675;SDS011;4375;52.486;13.424;2023-01-28T13:01:41;14.90;;;1.90;;
8675;SDS011;4375;52.486;13.424;2023-01-28T13:04:58;15.37;;;2.40;;
8675;SDS011;4375;52.486;13.424;2023-01-28T13:07:21;15.10;;;1.50;;
8675;SDS011;4375;52.486;13.424;2023-01-28T13:10:04;16.30;;;1.83;;
8675;SDS011;4375;52.486;13.424;2023-01-28T13:12:51;14.10;;;2.10;;
8675;SDS011;4375;52.486;13.424;2023-01-28T13:15:18;15.77;;;1.93;;
8675;SDS011;4375;52.486;13.424;2023-01-28T13:23:04;15.00;;;2.10;;
8675;SDS011;4375;52.486;13.424;2023-01-28T13:25:48;13.67;;;2.27;;
8675;SDS011;4375;52.486;13.424;2023-01-28T13:28:26;16.27;;;2.30;;
8675;SDS011;4375;52.486;13.424;2023-01-28T13:31:04;15.93;;;2.10;;
8675;SDS011;4375;52.486;13.424;2023-01-28T13:33:37;13.80;;;2.30;;
8675;SDS011;4375;52.486;13.424;2023-01-28T13:38:42;14.40;;;1.90;;
8675;SDS011;4375;52.486;13.424;2023-01-28T13:41:09;16.13;;;2.53;;
8675;SDS011;4375;52.486;13.424;2023-01-28T13:43:39;14.57;;;2.20;;
8675;SDS011;4375;52.486;13.424;2023-01-28T13:46:07;15.90;;;2.27;;
8675;SDS011;4375;52.486;13.424;2023-01-28T13:48:44;16.37;;;2.63;;
8675;SDS011;4375;52.486;13.424;2023-01-28T13:51:19;15.80;;;2.40;;
8675;SDS011;4375;52.486;13.424;2023-01-28T13:54:11;15.30;;;2.67;;
8675;SDS011;4375;52.486;13.424;2023-01-28T14:10:36;16.40;;;2.30;;
8675;SDS011;4375;52.486;13.424;2023-01-28T14:18:32;17.50;;;3.20;;
8675;SDS011;4375;52.486;13.424;2023-01-28T14:21:11;14.47;;;2.80;;
8675;SDS011;4375;52.486;13.424;2023-01-28T14:23:43;19.23;;;3.20;;
8675;SDS011;4375;52.486;13.424;2023-01-28T14:29:17;14.87;;;2.00;;
8675;SDS011;4375;52.486;13.424;2023-01-28T14:31:50;16.10;;;2.00;;
8675;SDS011;4375;52.486;13.424;2023-01-28T14:36:46;15.53;;;1.67;;
8675;SDS011;4375;52.486;13.424;2023-01-28T14:39:17;13.60;;;1.70;;
8675;SDS011;4375;52.486;13.424;2023-01-28T14:41:44;14.93;;;1.80;;
8675;SDS011;4375;52.486;13.424;2023-01-28T14:44:46;13.30;;;1.60;;
8675;SDS011;4375;52.486;13.424;2023-01-28T14:47:30;18.50;;;2.33;;
8675;SDS011;4375;52.486;13.424;2023-01-28T14:50:21;15.77;;;2.40;;
8675;SDS011;4375;52.486;13.424;2023-01-28T14:58:15;13.30;;;1.80;;
8675;SDS011;4375;52.486;13.424;2023-01-28T15:00:56;13.80;;;1.90;;
8675;SDS011;4375;52.486;13.424;2023-01-28T15:03:23;15.37;;;2.10;;
8675;SDS011;4375;52.486;13.424;2023-01-28T15:08:40;17.97;;;1.93;;
8675;SDS011;4375;52.486;13.424;2023-01-28T15:11:07;13.83;;;1.57;;
8675;SDS011;4375;52.486;13.424;2023-01-28T15:13:36;15.53;;;2.00;;
8675;SDS011;4375;52.486;13.424;2023-01-28T15:16:05;14.03;;;2.07;;
8675;SDS011;4375;52.486;13.424;2023-01-28T15:18:36;14.33;;;2.33;;
8675;SDS011;4375;52.486;13.424;2023-01-28T15:21:06;14.20;;;1.80;;
8675;SDS011;4375;52.486;13.424;2023-01-28T15:23:36;13.43;;;1.50;;
8675;SDS011;4375;52.486;13.424;2023-01-28T15:26:27;15.30;;;1.90;;
8675;SDS011;4375;52.486;13.424;2023-01-28T15:28:55;14.17;;;1.77;;
8675;SDS011;4375;52.486;13.424;2023-01-28T15:31:29;14.40;;;1.63;;
8675;SDS011;4375;52.486;13.424;2023-01-28T15:34:09;14.00;;;1.80;;
8675;SDS011;4375;52.486;13.424;2023-01-28T15:36:37;15.90;;;2.00;;
8675;SDS011;4375;52.486;13.424;2023-01-28T15:39:04;13.20;;;1.70;;
8675;SDS011;4375;52.486;13.424;2023-01-28T15:41:37;13.60;;;1.83;;
8675;SDS011;4375;52.486;13.424;2023-01-28T15:44:13;15.60;;;1.80;;
8675;SDS011;4375;52.486;13.424;2023-01-28T15:46:57;13.37;;;1.60;;
8675;SDS011;4375;52.486;13.424;2023-01-28T15:49:30;13.80;;;1.70;;
8675;SDS011;4375;52.486;13.424;2023-01-28T15:51:58;13.70;;;1.70;;
8675;SDS011;4375;52.486;13.424;2023-01-28T15:54:24;15.27;;;1.80;;
8675;SDS011;4375;52.486;13.424;2023-01-28T15:56:50;13.50;;;1.60;;
8675;SDS011;4375;52.486;13.424;2023-01-28T16:04:39;13.47;;;1.70;;
8675;SDS011;4375;52.486;13.424;2023-01-28T16:07:05;13.50;;;1.90;;
8675;SDS011;4375;52.486;13.424;2023-01-28T16:09:32;14.13;;;2.20;;
8675;SDS011;4375;52.486;13.424;2023-01-28T16:12:05;13.40;;;1.80;;
8675;SDS011;4375;52.486;13.424;2023-01-28T16:14:42;14.32;;;1.63;;
8675;SDS011;4375;52.486;13.424;2023-01-28T16:17:18;12.77;;;1.47;;
8675;SDS011;4375;52.486;13.424;2023-01-28T16:19:50;13.97;;;1.53;;
8675;SDS011;4375;52.486;13.424;2023-01-28T16:22:34;15.00;;;2.10;;
8675;SDS011;4375;52.486;13.424;2023-01-28T16:25:02;13.67;;;1.90;;
8675;SDS011;4375;52.486;13.424;2023-01-28T16:27:47;13.80;;;2.07;;
8675;SDS011;4375;52.486;13.424;2023-01-28T16:30:13;14.70;;;1.77;;
8675;SDS011;4375;52.486;13.424;2023-01-28T16:32:40;14.47;;;1.90;;
8675;SDS011;4375;52.486;13.424;2023-01-28T16:35:18;13.77;;;1.60;;
8675;SDS011;4375;52.486;13.424;2023-01-28T16:37:46;16.40;;;1.93;;
8675;SDS011;4375;52.486;13.424;2023-01-28T16:40:13;14.23;;;1.83;;
8675;SDS011;4375;52.486;13.424;2023-01-28T16:42:40;13.50;;;2.20;;
8675;SDS011;4375;52.486;13.424;2023-01-28T16:45:12;14.50;;;1.80;;
8675;SDS011;4375;52.486;13.424;2023-01-28T16:47:40;13.00;;;1.60;;
8675;SDS011;4375;52.486;13.424;2023-01-28T16:50:06;13.40;;;1.90;;
8675;SDS011;4375;52.486;13.424;2023-01-28T16:52:32;14.03;;;2.20;;
8675;SDS011;4375;52.486;13.424;2023-01-28T16:54:57;13.70;;;1.83;;
8675;SDS011;4375;52.486;13.424;2023-01-28T16:57:23;15.20;;;1.83;;
8675;SDS011;4375;52.486;13.424;2023-01-28T16:59:48;14.37;;;2.10;;
8675;SDS011;4375;52.486;13.424;2023-01-28T17:02:15;13.97;;;2.07;;
8675;SDS011;4375;52.486;13.424;2023-01-28T17:04:41;15.90;;;2.35;;
8675;SDS011;4375;52.486;13.424;2023-01-28T17:07:07;14.20;;;2.00;;
8675;SDS011;4375;52.486;13.424;2023-01-28T17:09:33;16.35;;;1.95;;
8675;SDS011;4375;52.486;13.424;2023-01-28T17:12:00;16.53;;;1.87;;
8675;SDS011;4375;52.486;13.424;2023-01-28T17:14:27;14.52;;;1.90;;
8675;SDS011;4375;52.486;13.424;2023-01-28T17:16:53;15.00;;;2.33;;
8675;SDS011;4375;52.486;13.424;2023-01-28T17:19:18;13.90;;;2.40;;
8675;SDS011;4375;52.486;13.424;2023-01-28T17:21:44;14.43;;;2.47;;
8675;SDS011;4375;52.486;13.424;2023-01-28T17:24:10;16.07;;;2.40;;
8675;SDS011;4375;52.486;13.424;2023-01-28T17:26:35;14.57;;;2.17;;
8675;SDS011;4375;52.486;13.424;2023-01-28T17:29:05;16.33;;;2.45;;
8675;SDS011;4375;52.486;13.424;2023-01-28T17:31:31;14.95;;;2.20;;
8675;SDS011;4375;52.486;13.424;2023-01-28T17:33:58;13.90;;;2.40;;
8675;SDS011;4375;52.486;13.424;2023-01-28T17:36:24;16.38;;;2.45;;